Time;durP1;ratioP1;P1;durP2;ratioP2;P2;SDS_P1;SDS_P2;PMS_P1;PMS_P2;Temp;Humidity;BMP_temperature;BMP_pressure;BME280_temperature;BME280_humidity;BME280_pressure;Samples;Min_cycle;Max_cycle;Signal;HPM_P1;HPM_P2
2021/07/10 00:01:56;;;;;;;0.40;0.30;;;15.00;99.90;;;;;;5113608;28;20387;-79
2021/07/10 00:04:22;;;;;;;0.40;0.20;;;15.20;99.90;;;;;;5113805;28;20375;-79
2021/07/10 00:06:48;;;;;;;0.40;0.20;;;14.80;99.90;;;;;;5114265;28;20392;-79
2021/07/10 00:09:14;;;;;;;0.40;0.20;;;14.80;99.90;;;;;;5112311;28;20376;-79
2021/07/10 00:11:40;;;;;;;0.40;0.20;;;14.90;99.90;;;;;;5114196;28;20372;-79
2021/07/10 00:14:06;;;;;;;0.40;0.20;;;14.90;99.90;;;;;;5113525;28;20379;-79
2021/07/10 00:16:32;;;;;;;0.40;0.30;;;14.80;99.90;;;;;;5095633;28;20880;-79
2021/07/10 00:18:58;;;;;;;0.40;0.30;;;14.80;99.90;;;;;;5113444;28;20395;-79
2021/07/10 00:21:23;;;;;;;0.40;0.20;;;14.80;99.90;;;;;;5095797;28;20383;-78
2021/07/10 00:23:49;;;;;;;0.40;0.20;;;14.80;99.90;;;;;;5113935;28;20381;-79
2021/07/10 00:26:15;;;;;;;0.40;0.20;;;14.90;99.90;;;;;;5113101;28;20380;-78
2021/07/10 00:28:41;;;;;;;0.40;0.20;;;14.80;99.90;;;;;;5114045;28;20380;-79
2021/07/10 00:31:06;;;;;;;0.40;0.20;;;14.80;99.90;;;;;;5112914;28;20377;-78
2021/07/10 00:33:32;;;;;;;0.40;0.20;;;14.70;99.90;;;;;;5113497;28;20488;-78
2021/07/10 00:35:57;;;;;;;0.40;0.20;;;14.70;99.90;;;;;;5094745;28;20383;-79
2021/07/10 00:38:23;;;;;;;0.40;0.20;;;14.80;99.90;;;;;;5113508;28;20443;-79
2021/07/10 00:40:49;;;;;;;0.40;0.20;;;14.50;99.90;;;;;;5113528;28;20388;-79
2021/07/10 00:43:14;;;;;;;0.40;0.30;;;14.60;99.90;;;;;;5112908;28;20396;-79
2021/07/10 00:45:40;;;;;;;0.40;0.20;;;14.70;99.90;;;;;;5113267;28;20887;-79
2021/07/10 00:48:06;;;;;;;0.50;0.40;;;14.60;99.90;;;;;;5094517;28;20396;-78
2021/07/10 00:50:31;;;;;;;0.40;0.20;;;14.70;99.90;;;;;;5113278;28;20377;-79
2021/07/10 00:52:57;;;;;;;0.40;0.20;;;14.70;99.90;;;;;;5096388;28;20393;-80
2021/07/10 00:55:24;;;;;;;0.40;0.20;;;14.80;99.90;;;;;;5092741;28;20457;-79
2021/07/10 00:57:51;;;;;;;0.40;0.20;;;14.70;99.90;;;;;;5092918;28;20418;-79
2021/07/10 01:00:19;;;;;;;0.40;0.30;;;14.60;99.90;;;;;;5092191;28;20461;-79
2021/07/10 01:02:48;;;;;;;0.40;0.20;;;14.60;99.90;;;;;;5092466;28;20380;-78
2021/07/10 01:05:17;;;;;;;0.40;0.20;;;14.60;99.90;;;;;;5092015;28;20381;-79
2021/07/10 01:07:42;;;;;;;0.40;0.20;;;14.70;99.90;;;;;;5092631;28;20431;-79
2021/07/10 01:10:10;;;;;;;0.40;0.30;;;14.60;99.90;;;;;;5091947;28;20374;-78
2021/07/10 01:12:38;;;;;;;0.40;0.20;;;14.60;99.90;;;;;;5092639;28;20735;-79
2021/07/10 01:15:06;;;;;;;0.40;0.30;;;14.70;99.90;;;;;;5091766;28;20382;-79
2021/07/10 01:17:32;;;;;;;0.40;0.20;;;14.50;99.90;;;;;;5092632;28;20406;-79
2021/07/10 01:20:00;;;;;;;0.40;0.20;;;14.50;99.90;;;;;;5091828;28;20850;-80
2021/07/10 01:22:26;;;;;;;0.40;0.20;;;14.40;99.90;;;;;;5092315;28;20453;-79
2021/07/10 01:24:52;;;;;;;0.40;0.20;;;14.50;99.90;;;;;;5092331;28;20381;-79
2021/07/10 01:27:18;;;;;;;0.40;0.20;;;14.50;99.90;;;;;;5091590;28;20843;-79
2021/07/10 01:29:46;;;;;;;0.40;0.20;;;14.70;99.90;;;;;;5092223;28;20374;-79
2021/07/10 01:32:16;;;;;;;0.40;0.30;;;14.60;99.90;;;;;;5091746;28;20389;-79
2021/07/10 01:34:45;;;;;;;0.40;0.30;;;14.40;99.90;;;;;;5092823;28;20428;-79
2021/07/10 01:37:11;;;;;;;0.40;0.20;;;14.40;99.90;;;;;;5073153;28;20419;-79
2021/07/10 01:39:37;;;;;;;0.40;0.30;;;14.40;99.90;;;;;;5092161;28;20474;-79
2021/07/10 01:42:03;;;;;;;0.40;0.20;;;14.40;99.90;;;;;;5091619;28;20426;-79
2021/07/10 01:44:29;;;;;;;0.40;0.20;;;14.30;99.90;;;;;;5092302;28;20378;-79
2021/07/10 01:46:54;;;;;;;0.40;0.30;;;14.40;99.90;;;;;;5092016;28;20390;-79
2021/07/10 01:49:20;;;;;;;0.40;0.30;;;14.10;99.90;;;;;;5091342;28;20854;-79
2021/07/10 01:51:46;;;;;;;0.40;0.30;;;14.10;99.90;;;;;;5098254;28;20384;-79
2021/07/10 01:54:11;;;;;;;0.40;0.20;;;14.20;99.90;;;;;;5111552;28;20387;-79
2021/07/10 01:56:37;;;;;;;0.40;0.20;;;14.00;99.90;;;;;;5111990;28;20400;-78
2021/07/10 01:59:03;;;;;;;0.40;0.20;;;13.90;99.90;;;;;;5111189;28;20434;-79
2021/07/10 02:01:29;;;;;;;0.40;0.22;;;14.20;99.90;;;;;;5112320;28;20442;-79
2021/07/10 02:03:55;;;;;;;0.40;0.20;;;13.90;99.90;;;;;;5112134;28;20821;-79
2021/07/10 02:06:22;;;;;;;0.40;0.30;;;13.90;99.90;;;;;;5111319;28;20459;-79
2021/07/10 02:08:48;;;;;;;0.40;0.20;;;13.70;99.90;;;;;;5112052;28;20718;-79
2021/07/10 02:11:14;;;;;;;0.40;0.20;;;13.80;99.90;;;;;;5111403;28;20426;-79
2021/07/10 02:13:39;;;;;;;0.40;0.30;;;13.80;99.90;;;;;;5093745;28;20824;-78
2021/07/10 02:16:05;;;;;;;0.40;0.30;;;13.80;99.90;;;;;;5110920;28;20749;-79
2021/07/10 02:18:31;;;;;;;0.40;0.20;;;13.80;99.90;;;;;;5111733;28;20416;-79
2021/07/10 02:20:57;;;;;;;0.40;0.20;;;13.80;99.90;;;;;;5111710;28;20389;-79
2021/07/10 02:23:22;;;;;;;0.40;0.20;;;13.80;99.90;;;;;;5111518;28;20384;-79
2021/07/10 02:25:48;;;;;;;0.40;0.20;;;13.70;99.90;;;;;;5111693;28;20872;-79
2021/07/10 02:28:14;;;;;;;0.40;0.20;;;13.60;99.90;;;;;;5110492;28;20411;-78
2021/07/10 02:30:40;;;;;;;0.40;0.20;;;13.70;99.90;;;;;;5111093;28;20476;-79
2021/07/10 02:33:06;;;;;;;0.40;0.20;;;13.60;99.90;;;;;;5110283;28;20465;-79
2021/07/10 02:35:33;;;;;;;0.40;0.20;;;13.60;99.90;;;;;;5111622;28;20372;-79
2021/07/10 02:37:59;;;;;;;0.40;0.20;;;13.60;99.90;;;;;;5111348;28;20428;-78
2021/07/10 02:40:25;;;;;;;0.40;0.20;;;13.50;99.90;;;;;;5111442;28;20376;-79
2021/07/10 02:42:51;;;;;;;0.40;0.20;;;13.50;99.90;;;;;;5111401;28;20380;-78
2021/07/10 02:45:18;;;;;;;0.40;0.20;;;13.60;99.90;;;;;;5110719;28;20441;-79
2021/07/10 02:47:44;;;;;;;0.40;0.20;;;13.50;99.90;;;;;;5111090;28;20391;-78
2021/07/10 02:50:17;;;;;;;0.40;0.30;;;13.70;99.90;;;;;;5105753;28;20382;-79
2021/07/10 02:52:43;;;;;;;0.40;0.20;;;13.30;99.90;;;;;;5105387;28;20392;-79
2021/07/10 02:55:09;;;;;;;0.40;0.20;;;13.40;99.90;;;;;;5110744;28;20464;-78
2021/07/10 02:57:35;;;;;;;0.40;0.20;;;13.40;99.90;;;;;;5111160;28;20402;-79
2021/07/10 03:00:03;;;;;;;0.40;0.20;;;13.70;99.90;;;;;;5111317;28;20786;-82
2021/07/10 03:02:28;;;;;;;0.40;0.20;;;13.70;99.90;;;;;;5111217;28;20467;-79
2021/07/10 03:04:54;;;;;;;0.40;0.20;;;13.50;99.90;;;;;;5111333;28;20475;-79
2021/07/10 03:07:20;;;;;;;0.40;0.20;;;13.50;99.90;;;;;;5110552;28;20441;-79
2021/07/10 03:09:45;;;;;;;0.40;0.30;;;13.60;99.90;;;;;;5111193;28;20455;-78
2021/07/10 03:12:11;;;;;;;0.40;0.20;;;13.70;99.90;;;;;;5092246;28;20463;-78
2021/07/10 03:14:37;;;;;;;0.40;0.30;;;13.60;99.90;;;;;;5111096;28;20842;-78
2021/07/10 03:17:03;;;;;;;0.40;0.20;;;13.50;99.90;;;;;;5110648;28;20602;-80
2021/07/10 03:19:29;;;;;;;0.40;0.20;;;13.40;99.90;;;;;;5111144;28;20380;-79
2021/07/10 03:21:54;;;;;;;0.40;0.20;;;13.40;99.90;;;;;;5111046;28;20379;-79
2021/07/10 03:24:20;;;;;;;0.40;0.20;;;13.30;99.90;;;;;;5110278;28;20384;-79
2021/07/10 03:26:46;;;;;;;0.40;0.20;;;13.60;99.90;;;;;;5110560;28;20809;-79
2021/07/10 03:29:11;;;;;;;0.40;0.20;;;13.40;99.90;;;;;;5092321;28;20729;-79
2021/07/10 03:31:37;;;;;;;0.40;0.20;;;13.70;99.90;;;;;;5110961;28;20374;-79
2021/07/10 03:34:03;;;;;;;0.40;0.20;;;13.40;99.90;;;;;;5110812;28;20376;-79
2021/07/10 03:36:28;;;;;;;0.40;0.20;;;13.40;99.90;;;;;;5110834;28;20364;-79
2021/07/10 03:38:55;;;;;;;0.40;0.30;;;13.60;99.90;;;;;;5111334;28;20419;-79
2021/07/10 03:41:21;;;;;;;0.40;0.30;;;13.30;99.90;;;;;;5110346;28;20368;-79
2021/07/10 03:43:47;;;;;;;0.40;0.20;;;13.40;99.90;;;;;;5113534;28;20582;-80
2021/07/10 03:46:13;;;;;;;0.40;0.30;;;13.50;99.90;;;;;;5113857;28;20437;-78
2021/07/10 03:48:39;;;;;;;0.40;0.20;;;13.50;99.90;;;;;;5114669;28;20384;-78
2021/07/10 03:51:06;;;;;;;0.40;0.20;;;13.50;99.90;;;;;;5114256;28;20425;-79
2021/07/10 03:53:32;;;;;;;0.40;0.20;;;13.60;99.90;;;;;;5114630;28;20375;-78
2021/07/10 03:55:58;;;;;;;0.50;0.40;;;13.70;99.90;;;;;;5114488;28;20380;-78
2021/07/10 03:58:23;;;;;;;0.40;0.20;;;13.50;99.90;;;;;;5113732;28;20840;-78
2021/07/10 04:00:49;;;;;;;0.40;0.20;;;13.80;99.90;;;;;;5114602;28;20736;-78
2021/07/10 04:03:15;;;;;;;0.40;0.20;;;13.70;99.90;;;;;;5114211;28;20429;-79
2021/07/10 04:05:41;;;;;;;0.40;0.20;;;13.70;99.90;;;;;;5114804;28;20383;-78
2021/07/10 04:08:06;;;;;;;0.40;0.30;;;13.60;99.90;;;;;;5113911;28;20380;-79
2021/07/10 04:10:32;;;;;;;0.40;0.30;;;13.60;99.90;;;;;;5114700;28;20706;-79
2021/07/10 04:12:58;;;;;;;0.40;0.20;;;13.70;99.90;;;;;;5114210;28;20368;-78
2021/07/10 04:15:24;;;;;;;0.50;0.40;;;13.80;99.90;;;;;;5113955;28;20385;-78
2021/07/10 04:17:50;;;;;;;0.40;0.25;;;13.90;99.90;;;;;;5114401;28;20418;-78
2021/07/10 04:20:18;;;;;;;0.40;0.30;;;13.90;99.90;;;;;;5113902;28;20379;-78
2021/07/10 04:22:44;;;;;;;0.40;0.30;;;13.80;99.90;;;;;;5114499;28;20367;-78
2021/07/10 04:25:14;;;;;;;0.40;0.20;;;13.70;99.90;;;;;;5114049;28;20380;-79
2021/07/10 04:27:43;;;;;;;0.40;0.20;;;13.60;99.90;;;;;;5113760;28;20406;-78
2021/07/10 04:30:10;;;;;;;0.40;0.20;;;13.60;99.90;;;;;;5113802;28;20437;-78
2021/07/10 04:32:36;;;;;;;0.40;0.20;;;13.60;99.90;;;;;;5113897;28;20415;-79
2021/07/10 04:35:02;;;;;;;0.40;0.20;;;13.70;99.90;;;;;;5114344;28;20446;-78
2021/07/10 04:37:27;;;;;;;0.40;0.20;;;13.90;99.90;;;;;;5113462;28;20545;-78
2021/07/10 04:39:53;;;;;;;0.40;0.20;;;13.80;99.90;;;;;;5114341;28;20380;-78
2021/07/10 04:42:21;;;;;;;0.40;0.20;;;13.80;99.90;;;;;;5113347;28;20456;-79
2021/07/10 04:44:47;;;;;;;0.40;0.20;;;13.70;99.90;;;;;;5114042;28;20377;-78
2021/07/10 04:47:13;;;;;;;0.50;0.50;;;13.70;99.90;;;;;;5113366;28;20392;-79
2021/07/10 04:49:39;;;;;;;0.40;0.23;;;13.70;99.90;;;;;;5113664;28;20388;-78
2021/07/10 04:52:05;;;;;;;0.40;0.30;;;13.70;99.90;;;;;;5105015;28;20386;-78
2021/07/10 04:54:31;;;;;;;0.40;0.20;;;13.70;99.90;;;;;;5073919;28;20821;-79
2021/07/10 04:56:56;;;;;;;0.40;0.20;;;13.70;99.90;;;;;;5093329;28;20497;-78
2021/07/10 04:59:22;;;;;;;0.40;0.20;;;13.70;99.90;;;;;;5092403;28;20415;-79
2021/07/10 05:01:47;;;;;;;0.40;0.20;;;13.90;99.90;;;;;;5093287;28;20378;-79
2021/07/10 05:04:13;;;;;;;0.40;0.20;;;13.90;99.90;;;;;;5092310;28;20456;-80
2021/07/10 05:06:38;;;;;;;0.40;0.30;;;14.10;99.90;;;;;;5074985;28;20473;-80
2021/07/10 05:09:04;;;;;;;0.40;0.20;;;14.10;99.90;;;;;;5093074;28;20465;-78
2021/07/10 05:11:30;;;;;;;0.40;0.20;;;14.20;99.90;;;;;;5092504;28;20386;-78
2021/07/10 05:13:55;;;;;;;0.40;0.30;;;14.40;99.90;;;;;;5092752;28;20377;-78
2021/07/10 05:16:21;;;;;;;0.40;0.30;;;14.40;99.90;;;;;;5092121;28;20390;-79
2021/07/10 05:18:47;;;;;;;0.40;0.40;;;14.50;99.90;;;;;;5074679;28;20774;-79
2021/07/10 05:21:13;;;;;;;0.40;0.20;;;14.50;99.90;;;;;;5091971;28;20910;-79
2021/07/10 05:23:40;;;;;;;0.40;0.20;;;14.60;99.90;;;;;;5093162;28;20415;-79
2021/07/10 05:26:09;;;;;;;0.40;0.20;;;14.60;99.90;;;;;;5092340;28;20385;-79
2021/07/10 05:28:35;;;;;;;0.40;0.20;;;14.70;99.90;;;;;;5074588;28;20522;-79
2021/07/10 05:31:01;;;;;;;0.40;0.30;;;14.70;99.90;;;;;;5092472;28;20816;-79
2021/07/10 05:33:26;;;;;;;0.40;0.20;;;14.80;99.90;;;;;;5092047;28;20520;-79
2021/07/10 05:35:52;;;;;;;0.40;0.20;;;14.70;99.90;;;;;;5092759;28;20838;-79
2021/07/10 05:38:18;;;;;;;0.60;0.60;;;14.80;99.90;;;;;;5091924;28;20530;-79
2021/07/10 05:40:44;;;;;;;0.40;0.30;;;14.90;99.90;;;;;;5092582;28;20795;-79
2021/07/10 05:43:10;;;;;;;0.40;0.20;;;15.00;99.90;;;;;;5092333;28;20382;-79
2021/07/10 05:45:36;;;;;;;0.40;0.20;;;15.10;99.90;;;;;;5092294;28;20448;-79
2021/07/10 05:48:02;;;;;;;0.40;0.30;;;15.10;99.90;;;;;;5092350;28;20390;-78
2021/07/10 05:50:27;;;;;;;0.40;0.30;;;15.20;99.90;;;;;;5091762;28;20439;-79
2021/07/10 05:52:53;;;;;;;0.40;0.30;;;15.30;99.90;;;;;;5108117;28;20771;-79
2021/07/10 05:55:19;;;;;;;0.40;0.20;;;15.40;99.90;;;;;;5111962;28;20484;-79
2021/07/10 05:57:45;;;;;;;0.40;0.20;;;15.50;99.90;;;;;;5112702;28;20816;-79
2021/07/10 06:00:13;;;;;;;0.40;0.20;;;15.50;99.90;;;;;;5112175;28;20426;-79
2021/07/10 06:02:39;;;;;;;0.40;0.20;;;15.40;99.90;;;;;;5112152;28;20948;-79
2021/07/10 06:05:07;;;;;;;0.40;0.20;;;15.60;99.90;;;;;;5112364;28;20478;-79
2021/07/10 06:07:33;;;;;;;0.40;0.20;;;15.70;99.90;;;;;;5110968;28;20737;-79
2021/07/10 06:09:59;;;;;;;0.40;0.20;;;15.90;99.90;;;;;;5112075;28;20364;-80
2021/07/10 06:12:25;;;;;;;0.40;0.30;;;15.90;99.90;;;;;;5110841;28;20385;-81
2021/07/10 06:14:51;;;;;;;0.40;0.20;;;15.90;99.90;;;;;;5111967;28;20416;-80
2021/07/10 06:17:17;;;;;;;0.40;0.20;;;16.00;99.90;;;;;;5111054;28;20533;-81
2021/07/10 06:19:43;;;;;;;0.40;0.20;;;16.00;99.90;;;;;;5111821;28;20865;-80
2021/07/10 06:22:08;;;;;;;0.40;0.20;;;16.10;99.90;;;;;;5111904;28;20464;-80
2021/07/10 06:24:35;;;;;;;0.40;0.20;;;16.20;99.90;;;;;;5111433;28;20459;-81
2021/07/10 06:27:01;;;;;;;0.40;0.20;;;16.20;99.90;;;;;;5111788;28;20415;-80
2021/07/10 06:29:26;;;;;;;0.40;0.20;;;16.30;99.90;;;;;;5110820;28;20778;-83
2021/07/10 06:31:52;;;;;;;0.40;0.20;;;16.40;99.90;;;;;;5112089;28;20377;-82
2021/07/10 06:34:18;;;;;;;0.40;0.20;;;16.50;99.90;;;;;;5111143;28;20372;-83
2021/07/10 06:36:43;;;;;;;0.40;0.20;;;16.50;99.90;;;;;;5111236;28;20399;-81
2021/07/10 06:39:09;;;;;;;0.40;0.30;;;16.60;99.90;;;;;;5111591;28;20714;-79
2021/07/10 06:41:37;;;;;;;0.40;0.30;;;16.60;99.90;;;;;;5111135;28;20380;-80
2021/07/10 06:44:03;;;;;;;0.40;0.30;;;16.70;99.90;;;;;;5111824;28;20388;-80
2021/07/10 06:46:29;;;;;;;0.40;0.20;;;16.80;99.90;;;;;;5110933;28;20809;-80
2021/07/10 06:48:55;;;;;;;0.40;0.20;;;16.80;99.90;;;;;;5111821;28;20483;-80
2021/07/10 06:51:21;;;;;;;0.40;0.30;;;17.00;99.90;;;;;;5108012;28;20406;-80
2021/07/10 06:53:47;;;;;;;0.40;0.20;;;17.10;99.90;;;;;;5090985;28;20760;-81
2021/07/10 06:56:12;;;;;;;0.40;0.30;;;17.20;99.90;;;;;;5091118;28;20972;-78
2021/07/10 06:58:38;;;;;;;0.40;0.20;;;17.30;99.90;;;;;;5090456;28;20492;-81
2021/07/10 07:01:04;;;;;;;0.40;0.20;;;17.40;99.90;;;;;;5090663;28;20389;-76
2021/07/10 07:03:31;;;;;;;0.40;0.27;;;17.40;99.90;;;;;;5090344;28;20374;-76
2021/07/10 07:05:57;;;;;;;0.40;0.20;;;17.50;99.90;;;;;;5090974;28;20427;-76
2021/07/10 07:08:23;;;;;;;0.40;0.30;;;17.70;99.90;;;;;;5090024;28;20389;-76
2021/07/10 07:10:49;;;;;;;0.40;0.20;;;17.70;99.90;;;;;;5090549;28;20934;-76
2021/07/10 07:13:14;;;;;;;0.40;0.20;;;17.80;99.90;;;;;;5106459;28;20466;-76
2021/07/10 07:15:40;;;;;;;0.40;0.20;;;17.80;99.90;;;;;;5110357;28;20423;-76
2021/07/10 07:18:06;;;;;;;0.40;0.30;;;17.90;99.90;;;;;;5094618;28;20435;-76
2021/07/10 07:20:32;;;;;;;0.40;0.20;;;17.90;99.90;;;;;;5114118;28;20399;-76
2021/07/10 07:22:58;;;;;;;0.40;0.30;;;18.00;99.90;;;;;;5115421;28;20381;-76
2021/07/10 07:25:23;;;;;;;0.40;0.20;;;18.00;99.90;;;;;;5096183;28;20383;-77
2021/07/10 07:27:51;;;;;;;0.40;0.30;;;18.10;99.90;;;;;;5115208;28;20872;-76
2021/07/10 07:30:17;;;;;;;0.40;0.30;;;18.20;99.90;;;;;;5114430;28;20770;-77
2021/07/10 07:32:43;;;;;;;0.40;0.30;;;18.20;99.90;;;;;;5114514;28;20469;-76
2021/07/10 07:35:11;;;;;;;0.40;0.20;;;18.30;99.90;;;;;;5114935;28;20381;-77
2021/07/10 07:37:37;;;;;;;0.40;0.20;;;18.40;99.90;;;;;;5095985;28;20400;-77
2021/07/10 07:40:07;;;;;;;0.40;0.20;;;18.50;99.90;;;;;;5114975;28;20404;-77
2021/07/10 07:42:33;;;;;;;0.40;0.20;;;18.70;99.90;;;;;;5114241;28;20369;-77
2021/07/10 07:44:59;;;;;;;0.40;0.20;;;18.80;99.90;;;;;;5114749;28;20848;-76
2021/07/10 07:47:24;;;;;;;0.40;0.20;;;18.90;99.90;;;;;;5114153;28;20911;-77
2021/07/10 07:49:50;;;;;;;0.40;0.20;;;18.90;99.90;;;;;;5114536;28;20432;-77
2021/07/10 07:52:16;;;;;;;0.40;0.30;;;19.00;99.90;;;;;;5114686;28;20380;-77
2021/07/10 07:54:41;;;;;;;0.40;0.30;;;19.00;99.90;;;;;;5113745;28;20380;-76
2021/07/10 07:57:08;;;;;;;0.40;0.20;;;19.00;99.90;;;;;;5114194;28;20450;-77
2021/07/10 07:59:33;;;;;;;0.40;0.20;;;19.10;99.90;;;;;;5113731;28;20387;-77
2021/07/10 08:01:59;;;;;;;0.40;0.30;;;19.20;99.90;;;;;;5114825;28;20380;-77
2021/07/10 08:04:25;;;;;;;0.40;0.20;;;19.20;99.90;;;;;;5113485;28;20380;-78
2021/07/10 08:06:50;;;;;;;0.40;0.20;;;19.10;99.90;;;;;;5114251;28;20450;-77
2021/07/10 08:09:16;;;;;;;0.40;0.30;;;19.10;99.90;;;;;;5114391;28;20391;-77
2021/07/10 08:11:42;;;;;;;0.40;0.30;;;19.40;99.90;;;;;;5113383;28;20384;-76
2021/07/10 08:14:08;;;;;;;0.40;0.20;;;19.50;99.90;;;;;;5114121;28;20391;-78
2021/07/10 08:16:34;;;;;;;0.40;0.20;;;19.70;99.90;;;;;;5113379;28;20869;-76
2021/07/10 08:19:00;;;;;;;0.40;0.20;;;19.60;99.90;;;;;;5114050;28;20432;-77
2021/07/10 08:21:27;;;;;;;0.40;0.20;;;19.60;99.90;;;;;;5113027;28;20819;-78
2021/07/10 08:23:57;;;;;;;0.40;0.20;;;19.50;99.90;;;;;;5114361;28;20770;-78
2021/07/10 08:26:23;;;;;;;0.40;0.30;;;19.40;99.90;;;;;;5113694;28;20397;-83
2021/07/10 08:28:48;;;;;;;0.40;0.30;;;19.50;99.90;;;;;;5094729;28;20391;-79
2021/07/10 08:31:16;;;;;;;0.40;0.20;;;19.60;99.90;;;;;;5112682;28;21524;-79
2021/07/10 08:33:42;;;;;;;0.40;0.20;;;19.60;99.90;;;;;;5113292;28;20465;-77
2021/07/10 08:36:08;;;;;;;0.40;0.30;;;19.80;99.90;;;;;;5113604;28;20379;-78
2021/07/10 08:38:34;;;;;;;0.40;0.30;;;19.80;99.90;;;;;;5113497;28;20400;-79
2021/07/10 08:41:03;;;;;;;0.40;0.20;;;20.00;99.90;;;;;;5114098;28;20391;-77
2021/07/10 08:43:28;;;;;;;0.40;0.30;;;20.40;99.90;;;;;;5113514;28;20759;-78
2021/07/10 08:45:56;;;;;;;0.40;0.20;;;20.30;99.90;;;;;;5113532;28;20385;-78
2021/07/10 08:48:22;;;;;;;0.40;0.30;;;20.10;99.90;;;;;;5114033;28;20380;-79
2021/07/10 08:50:48;;;;;;;0.40;0.30;;;20.40;99.90;;;;;;5113741;28;20460;-78
2021/07/10 08:53:14;;;;;;;0.40;0.20;;;20.30;99.90;;;;;;5077113;28;20473;-78
2021/07/10 08:55:40;;;;;;;0.40;0.30;;;20.20;99.90;;;;;;5092631;28;20929;-79
2021/07/10 08:58:06;;;;;;;0.40;0.20;;;20.30;99.90;;;;;;5093194;28;20406;-77
2021/07/10 09:00:38;;;;;;;0.40;0.40;;;20.50;99.90;;;;;;5092590;28;20465;-78
2021/07/10 09:03:05;;;;;;;0.40;0.20;;;20.60;99.90;;;;;;5093299;28;20793;-79
2021/07/10 09:05:31;;;;;;;0.40;0.20;;;20.60;99.90;;;;;;5092285;28;20499;-78
2021/07/10 09:08:21;;;;;;;0.40;0.30;;;20.50;99.90;;;;;;5093017;28;20386;-77
2021/07/10 09:10:56;;;;;;;0.40;0.30;;;20.70;99.90;;;;;;5092281;28;20927;-80
2021/07/10 09:13:49;;;;;;;0.40;0.30;;;20.90;99.90;;;;;;5093145;28;20431;-78
2021/07/10 09:16:16;;;;;;;0.40;0.20;;;20.80;99.90;;;;;;5092360;28;20401;-79
2021/07/10 09:18:44;;;;;;;0.40;0.30;;;20.80;99.90;;;;;;5092365;28;20402;-77
2021/07/10 09:21:12;;;;;;;0.40;0.20;;;21.10;99.90;;;;;;5074639;28;20426;-76
2021/07/10 09:23:41;;;;;;;0.40;0.20;;;21.10;99.90;;;;;;5092187;28;20382;-76
2021/07/10 09:26:14;;;;;;;0.70;0.50;;;21.00;99.90;;;;;;5092381;28;20374;-75
2021/07/10 09:28:40;;;;;;;0.40;0.20;;;21.10;99.90;;;;;;5092052;28;20382;-78
2021/07/10 09:31:35;;;;;;;0.40;0.30;;;21.10;99.90;;;;;;5092698;28;20863;-76
2021/07/10 09:34:16;;;;;;;0.40;0.20;;;21.10;99.90;;;;;;5092687;28;20370;-78
2021/07/10 09:36:58;;;;;;;0.40;0.20;;;21.10;99.90;;;;;;5091782;28;20432;-77
2021/07/10 09:39:45;;;;;;;0.40;0.20;;;21.10;99.90;;;;;;5092262;28;20896;-76
2021/07/10 09:42:12;;;;;;;0.40;0.30;;;21.30;99.90;;;;;;5090507;28;20394;-76
2021/07/10 09:44:47;;;;;;;0.40;0.30;;;21.50;99.90;;;;;;5091726;28;20374;-75
2021/07/10 09:47:15;;;;;;;0.40;0.30;;;21.60;99.90;;;;;;5092296;28;20540;-77
2021/07/10 09:49:45;;;;;;;0.40;0.20;;;21.30;99.90;;;;;;5091895;28;20480;-78
2021/07/10 09:52:14;;;;;;;0.40;0.30;;;21.40;99.90;;;;;;5102051;28;20384;-77
2021/07/10 09:54:54;;;;;;;0.40;0.20;;;21.30;99.90;;;;;;5112101;28;20464;-80
2021/07/10 09:57:21;;;;;;;0.40;0.30;;;21.50;99.90;;;;;;5112651;28;20404;-78
2021/07/10 09:59:51;;;;;;;0.40;0.30;;;21.70;99.90;;;;;;5111988;28;20396;-78
2021/07/10 10:02:23;;;;;;;0.40;0.30;;;21.80;99.60;;;;;;5112455;28;20377;-78
2021/07/10 10:04:49;;;;;;;0.40;0.30;;;21.60;99.20;;;;;;5112036;28;20463;-79
2021/07/10 10:07:21;;;;;;;0.40;0.30;;;21.80;98.40;;;;;;5093849;28;20384;-79
2021/07/10 10:09:55;;;;;;;0.40;0.25;;;21.60;98.60;;;;;;5111814;28;20432;-79
2021/07/10 10:12:20;;;;;;;0.40;0.20;;;21.90;97.90;;;;;;5093847;28;20453;-78
2021/07/10 10:14:49;;;;;;;0.40;0.30;;;21.90;98.50;;;;;;5110511;28;20377;-76
2021/07/10 10:17:16;;;;;;;0.40;0.20;;;22.00;97.50;;;;;;5111305;28;20404;-74
2021/07/10 10:19:45;;;;;;;0.40;0.30;;;22.10;96.20;;;;;;5111250;28;20769;-77
2021/07/10 10:22:12;;;;;;;0.40;0.20;;;22.20;95.80;;;;;;5111753;28;20372;-77
2021/07/10 10:24:45;;;;;;;0.40;0.20;;;22.30;96.20;;;;;;5111389;28;20372;-77
2021/07/10 10:27:11;;;;;;;0.60;0.40;;;22.20;95.00;;;;;;5111399;28;20408;-77
2021/07/10 10:29:38;;;;;;;0.40;0.20;;;22.20;94.60;;;;;;5111393;28;20468;-77
2021/07/10 10:32:06;;;;;;;0.40;0.20;;;22.40;94.90;;;;;;5111936;28;20372;-78
2021/07/10 10:34:33;;;;;;;0.40;0.30;;;22.40;94.70;;;;;;5110913;28;20388;-79
2021/07/10 10:36:59;;;;;;;0.40;0.20;;;22.40;95.10;;;;;;5111786;28;20855;-77
2021/07/10 10:39:38;;;;;;;0.40;0.30;;;22.40;96.00;;;;;;5093747;28;20506;-77
2021/07/10 10:42:20;;;;;;;0.40;0.20;;;23.40;95.60;;;;;;5111804;28;20415;-77
2021/07/10 10:44:48;;;;;;;0.40;0.30;;;22.50;93.80;;;;;;5111281;28;20426;-77
2021/07/10 10:47:14;;;;;;;0.40;0.20;;;22.70;95.00;;;;;;5111931;28;20740;-77
2021/07/10 10:49:54;;;;;;;0.40;0.30;;;22.80;98.40;;;;;;5111100;28;20384;-78
2021/07/10 10:52:32;;;;;;;0.40;0.30;;;22.80;94.40;;;;;;5100069;28;20747;-77
2021/07/10 10:55:09;;;;;;;0.40;0.30;;;23.10;94.40;;;;;;5091739;28;20386;-75
2021/07/10 10:57:36;;;;;;;0.40;0.20;;;23.10;93.90;;;;;;5090637;28;20480;-77
2021/07/10 11:00:23;;;;;;;0.40;0.30;;;23.20;93.80;;;;;;5091420;28;20520;-78
2021/07/10 11:02:49;;;;;;;0.40;0.20;;;23.40;94.70;;;;;;5090593;28;20381;-78
2021/07/10 11:05:16;;;;;;;0.40;0.20;;;23.40;93.10;;;;;;5091598;28;20378;-78
2021/07/10 11:07:42;;;;;;;0.60;0.50;;;23.50;93.50;;;;;;5090622;28;20378;-77
2021/07/10 11:10:17;;;;;;;0.40;0.30;;;23.40;94.20;;;;;;5091196;28;20401;-77
2021/07/10 11:12:46;;;;;;;0.40;0.20;;;23.70;94.50;;;;;;5090562;28;20370;-76
2021/07/10 11:15:30;;;;;;;0.40;0.20;;;23.80;91.90;;;;;;5090988;28;20443;-78
2021/07/10 11:18:06;;;;;;;0.40;0.30;;;23.70;91.50;;;;;;5090513;28;20409;-77
2021/07/10 11:20:41;;;;;;;0.40;0.30;;;23.80;92.00;;;;;;5090678;28;20396;-79
2021/07/10 11:23:24;;;;;;;0.40;0.22;;;23.90;92.30;;;;;;5099529;28;20903;-77
2021/07/10 11:25:49;;;;;;;0.40;0.20;;;24.00;92.50;;;;;;5096983;28;20963;-78
2021/07/10 11:28:20;;;;;;;0.40;0.20;;;24.10;91.00;;;;;;5106623;28;20511;-78
2021/07/10 11:31:07;;;;;;;0.40;0.30;;;24.30;92.20;;;;;;5093789;28;20783;-77
2021/07/10 11:34:00;;;;;;;0.40;0.30;;;24.80;95.40;;;;;;5101175;28;20523;-81
2021/07/10 11:36:38;;;;;;;0.40;0.30;;;25.10;91.40;;;;;;5095115;28;20384;-77
2021/07/10 11:39:25;;;;;;;0.40;0.30;;;24.70;88.20;;;;;;5101930;28;20973;-76
2021/07/10 11:41:51;;;;;;;0.40;0.30;;;24.60;87.80;;;;;;5087202;28;20400;-76
2021/07/10 11:44:28;;;;;;;0.40;0.22;;;24.90;87.20;;;;;;5096927;28;20771;-77
2021/07/10 11:46:56;;;;;;;0.40;0.30;;;25.20;87.10;;;;;;5101103;28;20404;-77
2021/07/10 11:49:40;;;;;;;0.40;0.30;;;25.50;85.90;;;;;;5103586;28;20381;-76
2021/07/10 11:52:13;;;;;;;0.40;0.30;;;25.90;85.50;;;;;;5094059;28;20386;-77
2021/07/10 11:54:47;;;;;;;0.40;0.20;;;26.20;87.00;;;;;;5100862;28;20397;-76
2021/07/10 11:57:14;;;;;;;0.50;0.30;;;26.20;80.10;;;;;;5096603;28;20762;-77
2021/07/10 11:59:42;;;;;;;0.50;0.20;;;26.60;78.00;;;;;;5098841;28;20372;-76
2021/07/10 12:02:22;;;;;;;0.40;0.20;;;26.90;76.70;;;;;;5099212;28;20489;-76
2021/07/10 12:05:11;;;;;;;0.40;0.30;;;26.60;79.90;;;;;;5094249;28;20393;-77
2021/07/10 12:07:54;;;;;;;0.40;0.20;;;26.90;78.10;;;;;;5099514;28;20408;-78
2021/07/10 12:10:35;;;;;;;0.40;0.20;;;26.70;75.70;;;;;;5100659;28;20451;-77
2021/07/10 12:13:02;;;;;;;0.40;0.20;;;26.70;77.40;;;;;;5086374;28;20388;-77
2021/07/10 12:15:33;;;;;;;0.50;0.30;;;26.10;78.60;;;;;;5106257;28;20459;-77
2021/07/10 12:18:02;;;;;;;0.40;0.20;;;26.00;82.80;;;;;;5101465;28;20420;-77
2021/07/10 12:20:31;;;;;;;0.50;0.30;;;25.50;83.30;;;;;;5098428;28;20391;-79
2021/07/10 12:22:59;;;;;;;0.50;0.30;;;25.50;85.20;;;;;;5107611;28;20388;-76
2021/07/10 12:25:29;;;;;;;0.50;0.30;;;24.90;84.80;;;;;;5099177;28;20390;-78
2021/07/10 12:27:58;;;;;;;0.40;0.30;;;25.10;83.50;;;;;;5105625;28;20411;-75
2021/07/10 12:30:48;;;;;;;0.50;0.30;;;24.90;84.20;;;;;;5102159;28;20392;-77
2021/07/10 12:33:32;;;;;;;0.40;0.20;;;24.80;85.70;;;;;;5110401;28;20389;-77
2021/07/10 12:36:11;;;;;;;0.40;0.20;;;24.70;87.40;;;;;;5095982;28;20390;-77
2021/07/10 12:38:53;;;;;;;0.40;0.30;;;25.30;84.80;;;;;;5109225;28;20404;-77
2021/07/10 12:41:20;;;;;;;0.50;0.30;;;25.50;88.00;;;;;;5100184;28;20377;-76
2021/07/10 12:43:46;;;;;;;0.40;0.30;;;25.30;88.10;;;;;;5102246;28;20436;-76
2021/07/10 12:46:12;;;;;;;0.40;0.20;;;25.40;88.00;;;;;;5107239;28;20412;-76
2021/07/10 12:48:37;;;;;;;0.40;0.30;;;25.90;84.60;;;;;;5098235;28;20389;-76
2021/07/10 12:51:03;;;;;;;0.40;0.30;;;25.80;81.70;;;;;;5081089;28;20394;-76
2021/07/10 12:53:32;;;;;;;0.40;0.30;;;26.20;82.00;;;;;;5099763;28;20377;-76